createdAt,value
2023-03-28T00:00:48.715Z,1.90
2023-03-28T00:03:18.911Z,1.80
2023-03-28T00:05:48.948Z,1.80
2023-03-28T00:08:16.562Z,1.80
2023-03-28T00:10:43.616Z,1.70
2023-03-28T00:13:10.762Z,1.70
2023-03-28T00:15:38.696Z,1.70
2023-03-28T00:18:05.801Z,1.60
2023-03-28T00:20:32.650Z,1.60
2023-03-28T00:22:59.418Z,1.60
2023-03-28T00:25:27.128Z,1.60
2023-03-28T00:27:53.930Z,1.60
2023-03-28T00:30:20.702Z,1.50
2023-03-28T00:32:47.476Z,1.60
2023-03-28T00:35:14.358Z,1.50
2023-03-28T00:37:42.140Z,1.60
2023-03-28T00:40:09.343Z,1.60
2023-03-28T00:42:40.985Z,1.90
2023-03-28T00:45:09.603Z,2.10
2023-03-28T00:47:49.561Z,2.10
2023-03-28T00:50:23.501Z,2.10
2023-03-28T00:52:57.279Z,2.10
2023-03-28T00:55:30.393Z,2.00
2023-03-28T00:57:57.506Z,2.00
2023-03-28T01:00:24.765Z,2.10
2023-03-28T01:02:53.317Z,2.20
2023-03-28T01:05:25.992Z,2.20
2023-03-28T01:07:55.601Z,2.20
2023-03-28T01:10:23.044Z,2.30
2023-03-28T01:12:51.558Z,2.40
2023-03-28T01:15:18.579Z,2.40
2023-03-28T01:17:46.606Z,2.30
2023-03-28T01:20:13.907Z,2.30
2023-03-28T01:22:56.294Z,2.10
2023-03-28T01:25:42.658Z,2.10
2023-03-28T01:28:33.938Z,1.90
2023-03-28T01:31:14.099Z,1.80
2023-03-28T01:33:40.950Z,1.70
2023-03-28T01:36:07.774Z,1.60
2023-03-28T01:38:39.716Z,1.50
2023-03-28T01:41:25.351Z,1.50
2023-03-28T01:44:01.048Z,1.50
2023-03-28T01:47:00.094Z,1.40
2023-03-28T01:49:46.272Z,1.30
2023-03-28T01:52:20.549Z,1.30
2023-03-28T01:54:56.246Z,1.30
2023-03-28T01:57:38.385Z,1.40
2023-03-28T02:00:43.381Z,1.50
2023-03-28T02:03:15.173Z,1.50
2023-03-28T02:05:43.292Z,1.50
2023-03-28T02:08:10.658Z,1.50
2023-03-28T02:10:39.016Z,1.50
2023-03-28T02:13:08.475Z,1.50
2023-03-28T02:15:35.261Z,1.40
2023-03-28T02:18:08.524Z,1.30
2023-03-28T02:20:37.143Z,1.20
2023-03-28T02:23:07.846Z,1.10
2023-03-28T02:25:34.859Z,1.10
2023-03-28T02:28:03.454Z,1.20
2023-03-28T02:30:30.228Z,1.30
2023-03-28T02:33:01.061Z,1.30
2023-03-28T02:35:31.620Z,1.40
2023-03-28T02:38:07.406Z,1.40
2023-03-28T02:40:44.288Z,1.40
2023-03-28T02:43:22.393Z,1.40
2023-03-28T02:45:52.058Z,1.40
2023-03-28T02:48:18.835Z,1.40
2023-03-28T02:50:54.693Z,1.30
2023-03-28T02:53:34.616Z,1.30
2023-03-28T02:56:11.946Z,1.20
2023-03-28T02:58:40.958Z,1.20
2023-03-28T03:01:07.891Z,1.10
2023-03-28T03:03:36.753Z,1.10
2023-03-28T03:06:04.268Z,1.00
2023-03-28T03:08:31.575Z,1.00
2023-03-28T03:10:58.763Z,0.90
2023-03-28T03:13:25.798Z,0.90
2023-03-28T03:15:56.344Z,0.90
2023-03-28T03:18:23.560Z,0.80
2023-03-28T03:20:50.467Z,0.70
2023-03-28T03:23:17.356Z,0.60
2023-03-28T03:25:45.420Z,0.60
2023-03-28T03:28:13.168Z,0.50
2023-03-28T03:30:40.008Z,0.50
2023-03-28T03:33:10.351Z,0.40
2023-03-28T03:35:37.762Z,0.40
2023-03-28T03:38:04.578Z,0.40
2023-03-28T03:40:31.424Z,0.40
2023-03-28T03:42:58.186Z,0.30
2023-03-28T03:45:24.968Z,0.30
2023-03-28T03:47:51.812Z,0.30
2023-03-28T03:50:18.791Z,0.30
2023-03-28T03:52:45.625Z,0.30
2023-03-28T03:55:12.446Z,0.20
2023-03-28T03:57:39.206Z,0.30
2023-03-28T04:00:12.153Z,0.30
2023-03-28T04:02:39.692Z,0.40
2023-03-28T04:05:08.694Z,0.50
2023-03-28T04:07:35.774Z,0.50
2023-03-28T04:10:02.790Z,0.60
2023-03-28T04:12:29.764Z,0.60
2023-03-28T04:14:56.651Z,0.70
2023-03-28T04:17:28.826Z,0.80
2023-03-28T04:19:56.106Z,0.80
2023-03-28T04:22:23.082Z,0.90
2023-03-28T04:24:50.057Z,0.90
2023-03-28T04:27:17.755Z,1.00
2023-03-28T04:29:44.543Z,1.00
2023-03-28T04:32:13.016Z,1.10
2023-03-28T04:34:40.034Z,1.10
2023-03-28T04:37:06.872Z,1.20
2023-03-28T04:39:36.552Z,1.20
2023-03-28T04:42:05.465Z,1.20
2023-03-28T04:44:32.461Z,1.30
2023-03-28T04:46:59.437Z,1.30
2023-03-28T04:49:26.771Z,1.40
2023-03-28T04:51:53.675Z,1.40
2023-03-28T04:54:20.851Z,1.40
2023-03-28T04:56:51.023Z,1.50
2023-03-28T04:59:18.432Z,1.50
2023-03-28T05:01:49.532Z,1.50
2023-03-28T05:04:17.877Z,1.50
2023-03-28T05:06:48.008Z,1.50
2023-03-28T05:09:15.385Z,1.60
2023-03-28T05:11:42.829Z,1.60
2023-03-28T05:14:09.653Z,1.60
2023-03-28T05:16:36.609Z,1.60
2023-03-28T05:19:04.018Z,1.70
2023-03-28T05:21:30.908Z,1.70
2023-03-28T05:23:57.792Z,1.80
2023-03-28T05:26:27.400Z,1.80
2023-03-28T05:28:54.366Z,1.80
2023-03-28T05:31:21.229Z,1.80
2023-03-28T05:33:48.059Z,1.80
2023-03-28T05:36:14.970Z,1.90
2023-03-28T05:38:42.308Z,1.90
2023-03-28T05:41:09.153Z,1.80
2023-03-28T05:43:35.946Z,1.90
2023-03-28T05:46:02.777Z,1.90
2023-03-28T05:48:29.709Z,1.90
2023-03-28T05:50:56.715Z,1.90
2023-03-28T05:53:23.535Z,1.90
2023-03-28T05:55:50.732Z,1.90
2023-03-28T05:58:17.671Z,1.90
2023-03-28T06:00:44.749Z,1.90
2023-03-28T06:03:17.377Z,1.90
2023-03-28T06:05:44.951Z,1.90
2023-03-28T06:08:11.933Z,2.00
2023-03-28T06:10:38.978Z,2.00
2023-03-28T06:13:05.734Z,2.00
2023-03-28T06:15:32.729Z,2.00
2023-03-28T06:17:59.752Z,2.00
2023-03-28T06:20:26.551Z,2.10
2023-03-28T06:22:53.332Z,2.20
2023-03-28T06:25:20.143Z,2.50
2023-03-28T06:27:46.893Z,2.70
2023-03-28T06:30:13.979Z,2.80
2023-03-28T06:32:41.203Z,3.00
2023-03-28T06:35:08.252Z,3.10
2023-03-28T06:37:35.000Z,3.10
2023-03-28T06:40:01.922Z,3.20
2023-03-28T06:42:28.756Z,3.20
2023-03-28T06:44:55.578Z,3.30
2023-03-28T06:47:22.570Z,3.30
2023-03-28T06:49:49.811Z,3.40
2023-03-28T06:52:17.417Z,3.40
2023-03-28T06:54:46.005Z,3.40
2023-03-28T06:57:14.041Z,3.50
2023-03-28T06:59:41.236Z,3.60
2023-03-28T07:02:10.123Z,3.70
2023-03-28T07:04:36.922Z,3.80
2023-03-28T07:07:03.733Z,3.80
2023-03-28T07:09:30.539Z,3.90
2023-03-28T07:11:57.304Z,3.90
2023-03-28T07:14:24.094Z,3.90
2023-03-28T07:16:50.892Z,3.90
2023-03-28T07:19:17.812Z,4.00
2023-03-28T07:21:44.569Z,4.00
2023-03-28T07:24:11.326Z,4.00
2023-03-28T07:26:38.102Z,4.10
2023-03-28T07:29:04.912Z,4.10
2023-03-28T07:31:31.997Z,4.20
2023-03-28T07:33:58.952Z,4.20
2023-03-28T07:36:26.905Z,4.20
2023-03-28T07:38:53.760Z,4.20
2023-03-28T07:41:22.620Z,4.20
2023-03-28T07:43:49.519Z,4.30
2023-03-28T07:46:17.185Z,4.40
2023-03-28T07:48:46.730Z,4.40
2023-03-28T07:51:14.385Z,4.50
2023-03-28T07:53:41.598Z,4.60
2023-03-28T07:56:12.675Z,4.80
2023-03-28T07:58:41.006Z,4.80
2023-03-28T08:01:12.875Z,4.90
2023-03-28T08:03:40.358Z,4.90
2023-03-28T08:06:17.069Z,5.00
2023-03-28T08:08:47.277Z,5.10
2023-03-28T08:11:14.108Z,5.10
2023-03-28T08:13:40.913Z,5.20
2023-03-28T08:16:08.109Z,5.30
2023-03-28T08:18:35.000Z,5.40
2023-03-28T08:21:03.087Z,5.40
2023-03-28T08:23:30.278Z,5.50
2023-03-28T08:26:05.162Z,5.60
2023-03-28T08:28:35.860Z,5.70
2023-03-28T08:31:03.321Z,5.70
2023-03-28T08:33:32.921Z,5.80
2023-03-28T08:35:59.932Z,5.80
2023-03-28T08:38:27.111Z,5.80
2023-03-28T08:41:12.687Z,5.80
2023-03-28T08:43:39.489Z,5.70
2023-03-28T08:46:06.466Z,5.70
2023-03-28T08:48:47.140Z,5.70
2023-03-28T08:51:13.869Z,5.80
2023-03-28T08:53:46.184Z,5.90
2023-03-28T08:56:14.320Z,5.80
2023-03-28T08:59:01.975Z,5.80
2023-03-28T09:01:32.966Z,5.80
2023-03-28T09:04:00.971Z,5.90
2023-03-28T09:06:41.007Z,5.90
2023-03-28T09:09:20.636Z,5.90
2023-03-28T09:11:59.531Z,5.90
2023-03-28T09:14:41.611Z,5.90
2023-03-28T09:17:26.987Z,5.90
2023-03-28T09:20:14.110Z,5.90
2023-03-28T09:23:02.170Z,6.00
2023-03-28T09:25:30.749Z,5.90
2023-03-28T09:27:57.792Z,5.90
2023-03-28T09:30:29.814Z,5.80
2023-03-28T09:32:59.206Z,5.80
2023-03-28T09:35:28.041Z,5.90
2023-03-28T09:37:58.872Z,5.80
2023-03-28T09:40:27.982Z,5.90
2023-03-28T09:43:01.281Z,6.00
2023-03-28T09:45:32.629Z,6.00
2023-03-28T09:48:00.224Z,6.00
2023-03-28T09:50:27.221Z,6.00
2023-03-28T09:52:55.649Z,6.00
2023-03-28T09:55:23.644Z,5.90
2023-03-28T09:58:02.474Z,5.90
2023-03-28T10:00:29.821Z,6.00
2023-03-28T10:02:56.653Z,6.10
2023-03-28T10:05:34.055Z,6.20
2023-03-28T10:08:04.265Z,6.20
2023-03-28T10:10:31.705Z,6.30
2023-03-28T10:13:02.382Z,6.30
2023-03-28T10:15:31.919Z,6.30
2023-03-28T10:18:04.127Z,6.30
2023-03-28T10:20:34.708Z,6.30
2023-03-28T10:23:04.368Z,6.30
2023-03-28T10:25:43.052Z,6.20
2023-03-28T10:28:30.115Z,6.30
2023-03-28T10:30:58.151Z,6.30
2023-03-28T10:33:26.612Z,6.30
2023-03-28T10:36:07.817Z,6.30
2023-03-28T10:38:44.547Z,6.20
2023-03-28T10:41:20.614Z,6.20
2023-03-28T10:43:47.368Z,6.20
2023-03-28T10:46:14.243Z,6.30
2023-03-28T10:48:42.180Z,6.30
2023-03-28T10:51:17.810Z,6.30
2023-03-28T10:54:02.724Z,6.40
2023-03-28T10:56:33.586Z,6.50
2023-03-28T10:59:17.115Z,6.60
2023-03-28T11:01:49.754Z,6.60
2023-03-28T11:04:25.445Z,6.70
2023-03-28T11:06:59.759Z,6.70
2023-03-28T11:09:31.887Z,6.80
2023-03-28T11:12:27.966Z,6.80
2023-03-28T11:15:01.740Z,6.90
2023-03-28T11:17:47.222Z,6.80
2023-03-28T11:20:17.879Z,6.70
2023-03-28T11:22:52.230Z,6.70
2023-03-28T11:25:35.956Z,6.70
2023-03-28T11:28:05.872Z,6.70
2023-03-28T11:30:34.083Z,6.70
2023-03-28T11:33:10.619Z,6.70
2023-03-28T11:35:52.792Z,6.80
2023-03-28T11:38:22.425Z,6.90
2023-03-28T11:40:54.101Z,7.00
2023-03-28T11:43:27.790Z,7.00
2023-03-28T11:45:56.821Z,7.20
2023-03-28T11:48:23.586Z,7.30
2023-03-28T11:50:56.656Z,7.30
2023-03-28T11:53:29.760Z,7.10
2023-03-28T11:56:15.354Z,7.00
2023-03-28T11:58:43.654Z,7.00
2023-03-28T12:01:21.717Z,6.90
2023-03-28T12:04:00.249Z,6.90
2023-03-28T12:07:02.281Z,6.90
2023-03-28T12:09:44.408Z,6.80
2023-03-28T12:12:18.329Z,6.80
2023-03-28T12:14:46.090Z,6.70
2023-03-28T12:17:23.253Z,6.80
2023-03-28T12:19:51.094Z,6.90
2023-03-28T12:22:44.246Z,6.90
2023-03-28T12:25:11.010Z,6.90
2023-03-28T12:27:43.577Z,7.10
2023-03-28T12:30:21.489Z,7.10
2023-03-28T12:32:54.181Z,7.20
2023-03-28T12:35:25.610Z,7.20
2023-03-28T12:38:18.912Z,7.20
2023-03-28T12:40:55.968Z,7.30
2023-03-28T12:43:43.778Z,7.30
2023-03-28T12:46:12.889Z,7.40
2023-03-28T12:48:39.636Z,7.50
2023-03-28T12:51:27.716Z,7.60
2023-03-28T12:54:09.775Z,7.50
2023-03-28T12:56:36.886Z,7.50
2023-03-28T12:59:23.359Z,7.60
2023-03-28T13:01:52.622Z,7.70
2023-03-28T13:04:28.047Z,7.60
2023-03-28T13:06:57.679Z,7.60
2023-03-28T13:09:42.991Z,7.70
2023-03-28T13:12:21.680Z,7.60
2023-03-28T13:15:01.081Z,7.50
2023-03-28T13:17:29.206Z,7.50
2023-03-28T13:20:09.627Z,7.60
2023-03-28T13:22:58.424Z,7.50
2023-03-28T13:25:27.447Z,7.40
2023-03-28T13:27:56.310Z,7.40
2023-03-28T13:30:27.693Z,7.40
2023-03-28T13:32:56.282Z,7.60
2023-03-28T13:35:42.689Z,7.70
2023-03-28T13:38:27.641Z,7.70
2023-03-28T13:40:59.569Z,7.70
2023-03-28T13:43:38.654Z,7.70
2023-03-28T13:46:14.748Z,7.80
2023-03-28T13:48:52.975Z,7.70
2023-03-28T13:51:24.500Z,7.70
2023-03-28T13:53:51.373Z,7.70
2023-03-28T13:56:23.356Z,7.80
2023-03-28T13:58:55.701Z,7.80
2023-03-28T14:01:33.441Z,7.60
2023-03-28T14:04:00.443Z,7.50
2023-03-28T14:06:28.801Z,7.40
2023-03-28T14:08:56.835Z,7.40
2023-03-28T14:11:30.468Z,7.40
2023-03-28T14:14:09.353Z,7.50
2023-03-28T14:16:37.231Z,7.50
2023-03-28T14:19:04.948Z,7.50
2023-03-28T14:21:32.264Z,7.60
2023-03-28T14:24:00.407Z,7.60
2023-03-28T14:26:28.442Z,7.60
2023-03-28T14:28:58.598Z,7.50
2023-03-28T14:31:29.753Z,7.50
2023-03-28T14:33:59.509Z,7.40
2023-03-28T14:36:31.165Z,7.40
2023-03-28T14:39:13.376Z,7.40
2023-03-28T14:41:42.058Z,7.40
2023-03-28T14:44:08.964Z,7.40
2023-03-28T14:46:36.428Z,7.40
2023-03-28T14:49:05.126Z,7.60
2023-03-28T14:51:42.139Z,7.60
2023-03-28T14:54:12.104Z,7.50
2023-03-28T14:56:38.954Z,7.60
2023-03-28T14:59:07.515Z,7.70
2023-03-28T15:01:34.624Z,7.60
2023-03-28T15:04:05.247Z,7.60
2023-03-28T15:06:33.313Z,7.60
2023-03-28T15:09:01.168Z,7.60
2023-03-28T15:11:30.674Z,7.60
2023-03-28T15:14:02.306Z,7.70
2023-03-28T15:16:29.502Z,7.60
2023-03-28T15:19:07.169Z,7.60
2023-03-28T15:21:35.118Z,7.70
2023-03-28T15:24:04.331Z,7.60
2023-03-28T15:26:34.326Z,7.60
2023-03-28T15:29:01.226Z,7.60
2023-03-28T15:31:28.321Z,7.60
2023-03-28T15:33:55.499Z,7.60
2023-03-28T15:36:28.775Z,7.60
2023-03-28T15:39:00.010Z,7.60
2023-03-28T15:41:40.405Z,7.60
2023-03-28T15:44:21.579Z,7.60
2023-03-28T15:46:48.575Z,7.60
2023-03-28T15:49:15.831Z,7.50
2023-03-28T15:51:50.867Z,7.50
2023-03-28T15:54:30.395Z,7.50
2023-03-28T15:57:00.647Z,7.40
2023-03-28T15:59:39.463Z,7.40
2023-03-28T16:02:24.890Z,7.40
2023-03-28T16:04:57.730Z,7.40
2023-03-28T16:07:24.662Z,7.40
2023-03-28T16:09:51.540Z,7.40
2023-03-28T16:12:18.874Z,7.30
2023-03-28T16:14:47.401Z,7.40
2023-03-28T16:17:14.453Z,7.30
2023-03-28T16:19:42.104Z,7.40
2023-03-28T16:22:08.866Z,7.40
2023-03-28T16:24:35.871Z,7.30
2023-03-28T16:27:03.065Z,7.30
2023-03-28T16:29:29.835Z,7.40
2023-03-28T16:31:56.668Z,7.30
2023-03-28T16:34:23.461Z,7.20
2023-03-28T16:36:50.255Z,7.20
2023-03-28T16:39:17.044Z,7.20
2023-03-28T16:41:43.880Z,7.10
2023-03-28T16:44:11.155Z,7.10
2023-03-28T16:46:38.106Z,7.10
2023-03-28T16:49:04.903Z,7.10
2023-03-28T16:51:31.771Z,7.00
2023-03-28T16:53:58.626Z,7.00
2023-03-28T16:56:30.259Z,7.00
2023-03-28T16:58:57.215Z,6.90
2023-03-28T17:01:24.029Z,6.90
2023-03-28T17:03:52.817Z,6.90
2023-03-28T17:06:19.757Z,6.90
2023-03-28T17:08:46.652Z,6.90
2023-03-28T17:11:13.780Z,6.90
2023-03-28T17:13:42.177Z,6.90
2023-03-28T17:16:09.651Z,6.90
2023-03-28T17:18:37.065Z,6.90
2023-03-28T17:21:08.508Z,6.90
2023-03-28T17:23:36.501Z,6.90
2023-03-28T17:26:03.760Z,6.90
2023-03-28T17:28:31.056Z,6.90
2023-03-28T17:30:57.890Z,6.80
2023-03-28T17:33:25.059Z,6.90
2023-03-28T17:35:51.971Z,6.80
2023-03-28T17:38:19.065Z,6.90
2023-03-28T17:40:48.635Z,6.80
2023-03-28T17:43:15.695Z,6.90
2023-03-28T17:45:42.700Z,6.80
2023-03-28T17:48:12.424Z,6.80
2023-03-28T17:50:39.350Z,6.90
2023-03-28T17:53:06.909Z,6.90
2023-03-28T17:55:33.881Z,6.90
2023-03-28T17:58:01.248Z,6.90
2023-03-28T18:00:29.604Z,6.90
2023-03-28T18:02:58.239Z,6.80
2023-03-28T18:05:25.107Z,6.80
2023-03-28T18:07:52.122Z,6.80
2023-03-28T18:10:18.984Z,6.80
2023-03-28T18:12:45.981Z,6.80
2023-03-28T18:15:13.187Z,6.80
2023-03-28T18:17:40.081Z,6.80
2023-03-28T18:20:08.640Z,6.80
2023-03-28T18:22:36.683Z,6.80
2023-03-28T18:25:03.774Z,6.80
2023-03-28T18:27:30.690Z,6.70
2023-03-28T18:29:57.470Z,6.80
2023-03-28T18:32:24.417Z,6.80
2023-03-28T18:34:51.298Z,6.80
2023-03-28T18:37:18.122Z,6.80
2023-03-28T18:39:45.524Z,6.70
2023-03-28T18:42:12.334Z,6.80
2023-03-28T18:44:40.897Z,6.80
2023-03-28T18:47:07.753Z,6.70
2023-03-28T18:49:34.771Z,6.70
2023-03-28T18:52:04.410Z,6.70
2023-03-28T18:54:32.145Z,6.70
2023-03-28T18:56:59.016Z,6.70
2023-03-28T18:59:26.505Z,6.70
2023-03-28T19:01:53.864Z,6.70
2023-03-28T19:04:23.187Z,6.70
2023-03-28T19:06:50.433Z,6.70
2023-03-28T19:09:17.336Z,6.70
2023-03-28T19:11:44.127Z,6.70
2023-03-28T19:14:10.938Z,6.70
2023-03-28T19:16:38.039Z,6.70
2023-03-28T19:19:04.952Z,6.70
2023-03-28T19:21:31.768Z,6.70
2023-03-28T19:23:58.571Z,6.70
2023-03-28T19:26:26.358Z,6.70
2023-03-28T19:28:53.617Z,6.70
2023-03-28T19:31:23.978Z,6.70
2023-03-28T19:33:51.085Z,6.60
2023-03-28T19:36:18.173Z,6.70
2023-03-28T19:38:45.225Z,6.70
2023-03-28T19:41:17.066Z,6.70
2023-03-28T19:43:44.049Z,6.70
2023-03-28T19:46:15.306Z,6.70
2023-03-28T19:48:42.513Z,6.70
2023-03-28T19:51:09.353Z,6.70
2023-03-28T19:53:36.351Z,6.70
2023-03-28T19:56:03.384Z,6.70
2023-03-28T19:58:31.271Z,6.70
2023-03-28T20:00:58.324Z,6.70
2023-03-28T20:03:25.222Z,6.70
2023-03-28T20:05:52.063Z,6.70
2023-03-28T20:08:19.197Z,6.70
2023-03-28T20:10:46.982Z,6.70
2023-03-28T20:13:13.982Z,6.70
2023-03-28T20:15:41.712Z,6.70
2023-03-28T20:18:14.578Z,6.70
2023-03-28T20:20:41.921Z,6.70
2023-03-28T20:23:09.107Z,6.70
2023-03-28T20:25:36.084Z,6.70
2023-03-28T20:28:04.429Z,6.70
2023-03-28T20:30:31.998Z,6.70
2023-03-28T20:32:59.046Z,6.70
2023-03-28T20:35:27.475Z,6.70
2023-03-28T20:37:54.436Z,6.70
2023-03-28T20:40:22.976Z,6.70
2023-03-28T20:42:52.702Z,6.70
2023-03-28T20:45:22.520Z,6.70
2023-03-28T20:47:56.411Z,6.70
2023-03-28T20:50:24.224Z,6.70
2023-03-28T20:52:51.798Z,6.70
2023-03-28T20:55:19.073Z,6.70
2023-03-28T20:57:45.905Z,6.70
2023-03-28T21:00:14.692Z,6.70
2023-03-28T21:02:41.929Z,6.70
2023-03-28T21:05:09.133Z,6.70
2023-03-28T21:07:36.167Z,6.70
2023-03-28T21:10:04.041Z,6.70
2023-03-28T21:12:31.018Z,6.70
2023-03-28T21:14:57.909Z,6.70
2023-03-28T21:17:29.211Z,6.70
2023-03-28T21:19:56.744Z,6.70
2023-03-28T21:22:23.892Z,6.70
2023-03-28T21:24:50.728Z,6.70
2023-03-28T21:27:18.106Z,6.60
2023-03-28T21:29:44.933Z,6.70
2023-03-28T21:32:12.073Z,6.70
2023-03-28T21:34:39.112Z,6.70
2023-03-28T21:37:06.062Z,6.70
2023-03-28T21:39:32.907Z,6.70
2023-03-28T21:42:00.150Z,6.70
2023-03-28T21:44:26.978Z,6.70
2023-03-28T21:46:53.856Z,6.70
2023-03-28T21:49:20.657Z,6.70
2023-03-28T21:51:47.397Z,6.70
2023-03-28T21:54:14.181Z,6.70
2023-03-28T21:56:41.121Z,6.70
2023-03-28T21:59:07.895Z,6.70
2023-03-28T22:01:34.788Z,6.70
2023-03-28T22:04:01.716Z,6.70
2023-03-28T22:06:28.533Z,6.70
2023-03-28T22:08:55.419Z,6.70
2023-03-28T22:11:27.850Z,6.70
2023-03-28T22:14:02.129Z,6.70
2023-03-28T22:16:30.388Z,6.70
2023-03-28T22:18:57.275Z,6.70
2023-03-28T22:21:24.996Z,6.70
2023-03-28T22:23:52.679Z,6.70
2023-03-28T22:26:19.468Z,6.70
2023-03-28T22:28:46.309Z,6.70
2023-03-28T22:31:13.926Z,6.70
2023-03-28T22:33:40.710Z,6.70
2023-03-28T22:36:07.844Z,6.70
2023-03-28T22:38:34.715Z,6.70
2023-03-28T22:41:01.594Z,6.70
2023-03-28T22:43:30.007Z,6.70
2023-03-28T22:45:56.885Z,6.70
2023-03-28T22:48:23.622Z,6.70
2023-03-28T22:50:50.488Z,6.70
2023-03-28T22:53:18.291Z,6.70
2023-03-28T22:55:45.384Z,6.70
2023-03-28T22:58:12.590Z,6.70
2023-03-28T23:00:39.408Z,6.70
2023-03-28T23:03:08.093Z,6.60
2023-03-28T23:05:35.396Z,6.70
2023-03-28T23:08:02.359Z,6.70
2023-03-28T23:10:29.349Z,6.60
2023-03-28T23:12:56.492Z,6.60
2023-03-28T23:15:23.430Z,6.60
2023-03-28T23:17:50.958Z,6.60
2023-03-28T23:20:19.205Z,6.60
2023-03-28T23:22:47.447Z,6.60
2023-03-28T23:25:15.697Z,6.60
2023-03-28T23:27:42.726Z,6.60
2023-03-28T23:30:11.198Z,6.60
2023-03-28T23:32:38.078Z,6.60
2023-03-28T23:35:05.813Z,6.60
2023-03-28T23:37:34.529Z,6.60
2023-03-28T23:40:01.539Z,6.50
2023-03-28T23:42:28.399Z,6.50
2023-03-28T23:44:55.196Z,6.40
2023-03-28T23:47:22.212Z,6.40
2023-03-28T23:49:49.015Z,6.40
2023-03-28T23:52:16.472Z,6.40
2023-03-28T23:54:44.234Z,6.30
2023-03-28T23:57:11.402Z,6.40
2023-03-28T23:59:38.360Z,6.30
